Time;durP1;ratioP1;P1;durP2;ratioP2;P2;SDS_P1;SDS_P2;PMS_P1;PMS_P2;Temp;Humidity;BMP_temperature;BMP_pressure;BME280_temperature;BME280_humidity;BME280_pressure;Samples;Min_cycle;Max_cycle;Signal;HPM_P1;HPM_P2
2023/06/17 00:01:45;;;;;;;7.50;5.00;;;;;;;;;;5014823;28;20221;-73
2023/06/17 00:04:49;;;;;;;7.10;4.77;;;;;;;;;;5014750;28;20186;-73
2023/06/17 00:07:53;;;;;;;7.07;4.93;;;;;;;;;;5014445;28;20177;-73
2023/06/17 00:10:57;;;;;;;6.27;5.17;;;;;;;;;;5014601;28;20684;-73
2023/06/17 00:14:02;;;;;;;7.43;5.00;;;;;;;;;;5013737;28;20178;-73
2023/06/17 00:17:08;;;;;;;5.67;4.73;;;;;;;;;;5014716;28;20197;-73
2023/06/17 00:20:13;;;;;;;7.80;5.37;;;;;;;;;;5013685;28;20185;-73
2023/06/17 00:23:17;;;;;;;5.57;4.90;;;;;;;;;;5013891;28;20185;-73
2023/06/17 00:26:23;;;;;;;5.47;4.73;;;;;;;;;;5014644;28;20214;-73
2023/06/17 00:29:27;;;;;;;7.87;5.37;;;;;;;;;;5014382;28;20177;-73
2023/06/17 00:32:31;;;;;;;6.13;5.20;;;;;;;;;;5013992;28;20675;-73
2023/06/17 00:35:35;;;;;;;7.37;5.33;;;;;;;;;;5014268;28;20216;-73
2023/06/17 00:38:40;;;;;;;9.90;5.50;;;;;;;;;;5014428;28;20189;-73
2023/06/17 00:41:44;;;;;;;7.70;4.87;;;;;;;;;;5013474;28;20565;-73
2023/06/17 00:44:48;;;;;;;6.10;5.40;;;;;;;;;;5014092;28;20177;-73
2023/06/17 00:47:52;;;;;;;7.87;4.90;;;;;;;;;;5002202;28;20174;-73
2023/06/17 00:51:01;;;;;;;8.40;4.63;;;;;;;;;;5014182;28;20213;-74
2023/06/17 00:54:07;;;;;;;5.93;5.30;;;;;;;;;;5001833;28;20197;-73
2023/06/17 00:57:13;;;;;;;5.47;4.70;;;;;;;;;;5001889;28;20557;-72
2023/06/17 01:00:17;;;;;;;6.37;5.23;;;;;;;;;;5013172;28;20194;-73
2023/06/17 01:03:22;;;;;;;8.37;5.50;;;;;;;;;;5013130;28;20640;-73
2023/06/17 01:06:42;;;;;;;8.07;6.20;;;;;;;;;;5001892;28;20182;-73
2023/06/17 01:09:54;;;;;;;7.43;5.20;;;;;;;;;;5013158;28;20186;-73
2023/06/17 01:13:00;;;;;;;8.50;5.47;;;;;;;;;;5013650;28;20177;-73
2023/06/17 01:16:05;;;;;;;7.73;6.20;;;;;;;;;;5013526;28;20561;-73
2023/06/17 01:19:18;;;;;;;10.13;5.57;;;;;;;;;;5012667;28;20209;-73
2023/06/17 01:22:23;;;;;;;8.43;4.93;;;;;;;;;;5012747;28;20221;-72
2023/06/17 01:25:31;;;;;;;6.93;5.13;;;;;;;;;;5012909;28;20178;-73
2023/06/17 01:28:40;;;;;;;9.73;5.70;;;;;;;;;;5012921;28;20186;-73
2023/06/17 01:31:48;;;;;;;7.43;5.10;;;;;;;;;;5012612;28;20217;-73
2023/06/17 01:35:03;;;;;;;6.40;5.20;;;;;;;;;;5012611;28;20201;-73
2023/06/17 01:38:20;;;;;;;6.37;4.60;;;;;;;;;;5013671;28;20170;-73
2023/06/17 01:41:43;;;;;;;8.47;5.67;;;;;;;;;;5012821;28;20549;-74
2023/06/17 01:44:48;;;;;;;6.20;5.57;;;;;;;;;;5012753;28;20186;-73
2023/06/17 01:47:53;;;;;;;14.83;6.00;;;;;;;;;;5013465;28;20177;-73
2023/06/17 01:50:58;;;;;;;11.73;6.13;;;;;;;;;;5012284;28;20217;-73
2023/06/17 01:54:01;;;;;;;7.90;5.67;;;;;;;;;;5001118;28;20201;-73
2023/06/17 01:57:06;;;;;;;9.67;6.00;;;;;;;;;;5012482;28;20546;-73
2023/06/17 02:00:13;;;;;;;6.97;5.43;;;;;;;;;;5012549;28;20201;-73
2023/06/17 02:03:17;;;;;;;8.97;5.47;;;;;;;;;;5012458;28;20660;-74
2023/06/17 02:06:21;;;;;;;6.83;5.30;;;;;;;;;;5012782;28;20178;-73
2023/06/17 02:09:26;;;;;;;7.60;6.00;;;;;;;;;;5012484;28;20181;-73
2023/06/17 02:12:30;;;;;;;5.63;5.00;;;;;;;;;;5000962;28;20225;-74
2023/06/17 02:15:34;;;;;;;8.17;6.30;;;;;;;;;;5000955;28;20181;-72
2023/06/17 02:18:39;;;;;;;6.00;5.40;;;;;;;;;;5012156;28;20170;-73
2023/06/17 02:21:43;;;;;;;8.67;5.53;;;;;;;;;;5012699;28;20225;-74
2023/06/17 02:24:47;;;;;;;6.80;5.67;;;;;;;;;;5015828;28;20202;-74
2023/06/17 02:27:51;;;;;;;7.73;5.60;;;;;;;;;;5015824;28;20505;-73
2023/06/17 02:30:55;;;;;;;6.17;5.47;;;;;;;;;;5016741;28;20221;-73
2023/06/17 02:34:01;;;;;;;6.63;5.40;;;;;;;;;;5015752;28;20185;-73
2023/06/17 02:37:07;;;;;;;7.37;5.30;;;;;;;;;;5015470;28;20221;-73
2023/06/17 02:40:11;;;;;;;7.47;5.37;;;;;;;;;;5015809;28;20182;-73
2023/06/17 02:43:15;;;;;;;6.07;5.47;;;;;;;;;;4993150;28;20178;-73
2023/06/17 02:46:19;;;;;;;7.10;5.33;;;;;;;;;;5016523;28;20177;-73
2023/06/17 02:49:24;;;;;;;7.20;5.83;;;;;;;;;;5015427;28;20185;-73
2023/06/17 02:52:30;;;;;;;11.20;6.70;;;;;;;;;;5015298;28;20703;-73
2023/06/17 02:55:34;;;;;;;8.13;6.07;;;;;;;;;;5004272;28;20201;-73
2023/06/17 02:58:46;;;;;;;8.43;5.70;;;;;;;;;;5015521;28;20178;-73
2023/06/17 03:01:51;;;;;;;6.00;5.40;;;;;;;;;;5015020;28;20217;-73
2023/06/17 03:04:56;;;;;;;7.03;5.57;;;;;;;;;;5015908;28;20174;-73
2023/06/17 03:08:02;;;;;;;6.40;4.97;;;;;;;;;;5004047;28;20521;-74
2023/06/17 03:11:08;;;;;;;6.47;5.07;;;;;;;;;;5003852;28;20216;-74
2023/06/17 03:14:19;;;;;;;8.43;5.27;;;;;;;;;;5015209;28;20181;-74
2023/06/17 03:17:27;;;;;;;7.30;5.30;;;;;;;;;;5014801;28;20664;-73
2023/06/17 03:20:31;;;;;;;6.40;5.77;;;;;;;;;;5015027;28;20193;-73
2023/06/17 03:23:35;;;;;;;8.03;5.30;;;;;;;;;;5014716;28;20185;-73
2023/06/17 03:26:39;;;;;;;7.83;5.60;;;;;;;;;;5014697;28;20174;-73
2023/06/17 03:29:43;;;;;;;7.23;4.97;;;;;;;;;;5014628;28;20178;-73
2023/06/17 03:32:48;;;;;;;8.80;6.07;;;;;;;;;;5014729;28;20177;-74
2023/06/17 03:35:52;;;;;;;5.97;5.33;;;;;;;;;;5014511;28;20205;-74
2023/06/17 03:38:57;;;;;;;6.90;5.10;;;;;;;;;;5014461;28;20185;-73
2023/06/17 03:42:02;;;;;;;6.73;5.67;;;;;;;;;;5014277;28;20221;-73
2023/06/17 03:45:07;;;;;;;6.50;5.90;;;;;;;;;;5014284;28;20545;-73
2023/06/17 03:48:12;;;;;;;8.47;5.73;;;;;;;;;;5014266;28;20174;-73
2023/06/17 03:51:16;;;;;;;7.80;5.50;;;;;;;;;;5003474;28;20679;-73
2023/06/17 03:54:21;;;;;;;7.73;5.30;;;;;;;;;;5014657;28;20514;-73
2023/06/17 03:57:26;;;;;;;10.93;5.97;;;;;;;;;;5013944;28;20221;-73
2023/06/17 04:00:31;;;;;;;7.40;6.13;;;;;;;;;;5014769;28;20209;-73
2023/06/17 04:03:35;;;;;;;6.87;5.37;;;;;;;;;;5013959;28;20197;-73
2023/06/17 04:06:40;;;;;;;6.67;6.00;;;;;;;;;;5014242;28;20185;-73
2023/06/17 04:09:44;;;;;;;7.53;6.00;;;;;;;;;;5014155;28;20182;-73
2023/06/17 04:12:48;;;;;;;6.80;6.07;;;;;;;;;;5014717;28;20537;-73
2023/06/17 04:15:52;;;;;;;6.50;5.83;;;;;;;;;;5014072;28;20181;-73
2023/06/17 04:18:57;;;;;;;7.70;6.00;;;;;;;;;;5013746;28;20166;-73
2023/06/17 04:22:01;;;;;;;7.30;5.90;;;;;;;;;;5013574;28;20221;-73
2023/06/17 04:25:07;;;;;;;8.33;5.53;;;;;;;;;;5013802;28;20201;-73
2023/06/17 04:28:12;;;;;;;8.13;5.67;;;;;;;;;;5013567;28;20637;-73
2023/06/17 04:31:16;;;;;;;8.00;6.50;;;;;;;;;;5013393;28;20217;-73
2023/06/17 04:34:22;;;;;;;9.57;6.30;;;;;;;;;;5013433;28;20182;-74
2023/06/17 04:37:28;;;;;;;7.53;5.73;;;;;;;;;;5027722;23;20237;-71
2023/06/17 04:40:33;;;;;;;6.63;5.93;;;;;;;;;;5024805;28;20178;-71
2023/06/17 04:43:37;;;;;;;5.90;5.33;;;;;;;;;;5013554;28;20182;-72
2023/06/17 04:46:44;;;;;;;8.77;6.30;;;;;;;;;;5013249;28;20177;-72
2023/06/17 04:49:51;;;;;;;8.63;5.50;;;;;;;;;;5013203;28;20525;-72
2023/06/17 04:53:03;;;;;;;6.80;5.80;;;;;;;;;;5002211;28;20177;-72
2023/06/17 04:56:08;;;;;;;7.77;5.83;;;;;;;;;;5013306;28;20201;-72
2023/06/17 04:59:12;;;;;;;8.60;6.53;;;;;;;;;;5013069;28;20174;-72
2023/06/17 05:02:17;;;;;;;7.20;5.97;;;;;;;;;;5001771;28;20224;-71
2023/06/17 05:05:22;;;;;;;10.47;5.63;;;;;;;;;;5012950;28;20182;-71
2023/06/17 05:08:26;;;;;;;10.10;5.50;;;;;;;;;;5001644;28;20201;-72
2023/06/17 05:11:30;;;;;;;5.53;5.03;;;;;;;;;;5013048;28;20225;-71
2023/06/17 05:14:34;;;;;;;8.27;5.60;;;;;;;;;;5001843;28;20185;-72
2023/06/17 05:17:39;;;;;;;7.70;6.13;;;;;;;;;;5012929;28;20202;-72
2023/06/17 05:20:43;;;;;;;9.40;5.90;;;;;;;;;;5013205;28;20224;-71
2023/06/17 05:23:50;;;;;;;11.30;6.27;;;;;;;;;;5012689;28;20193;-72
2023/06/17 05:26:54;;;;;;;7.97;5.47;;;;;;;;;;5012756;28;20521;-72
2023/06/17 05:29:58;;;;;;;6.20;5.60;;;;;;;;;;5012793;28;20181;-72
2023/06/17 05:33:02;;;;;;;8.73;6.00;;;;;;;;;;5013785;28;20177;-72
2023/06/17 05:36:06;;;;;;;6.97;5.97;;;;;;;;;;5001243;28;20174;-72
2023/06/17 05:39:10;;;;;;;11.07;5.90;;;;;;;;;;5012573;28;20209;-72
2023/06/17 05:42:15;;;;;;;7.53;5.57;;;;;;;;;;5012484;28;20221;-72
2023/06/17 05:45:21;;;;;;;10.13;6.20;;;;;;;;;;5012638;28;20174;-72
2023/06/17 05:48:26;;;;;;;9.93;5.53;;;;;;;;;;5012312;28;20178;-72
2023/06/17 05:51:30;;;;;;;5.57;5.03;;;;;;;;;;5013371;28;20280;-71
2023/06/17 05:54:37;;;;;;;10.33;5.70;;;;;;;;;;5001280;28;20177;-72
2023/06/17 05:57:42;;;;;;;8.77;5.23;;;;;;;;;;5014491;28;20691;-71
2023/06/17 06:00:46;;;;;;;9.53;5.30;;;;;;;;;;4994391;28;20225;-71
2023/06/17 06:03:50;;;;;;;8.97;5.80;;;;;;;;;;5005269;28;20181;-71
2023/06/17 06:06:54;;;;;;;8.87;5.60;;;;;;;;;;5016476;28;20182;-71
2023/06/17 06:09:58;;;;;;;12.90;5.63;;;;;;;;;;5016146;28;20182;-71
2023/06/17 06:13:02;;;;;;;5.63;4.93;;;;;;;;;;5016404;28;20545;-71
2023/06/17 06:16:07;;;;;;;7.50;5.17;;;;;;;;;;5016289;28;20181;-71
2023/06/17 06:19:11;;;;;;;9.80;5.47;;;;;;;;;;5015926;28;20201;-71
2023/06/17 06:22:16;;;;;;;7.40;5.50;;;;;;;;;;5015866;28;20218;-71
2023/06/17 06:25:20;;;;;;;8.43;5.73;;;;;;;;;;5016115;28;20178;-71
2023/06/17 06:28:25;;;;;;;9.20;5.27;;;;;;;;;;5015914;28;20182;-72
2023/06/17 06:31:29;;;;;;;7.00;4.87;;;;;;;;;;5015693;28;20217;-71
2023/06/17 06:34:33;;;;;;;9.23;5.03;;;;;;;;;;5015656;28;20177;-71
2023/06/17 06:37:37;;;;;;;7.63;5.20;;;;;;;;;;5015397;28;20701;-71
2023/06/17 06:40:42;;;;;;;7.37;5.27;;;;;;;;;;5016313;28;20217;-71
2023/06/17 06:43:46;;;;;;;5.87;4.50;;;;;;;;;;5015509;28;20181;-71
2023/06/17 06:46:55;;;;;;;5.80;4.10;;;;;;;;;;5015734;28;20633;-72
2023/06/17 06:50:00;;;;;;;8.83;4.43;;;;;;;;;;5015373;28;20173;-72
2023/06/17 06:53:05;;;;;;;8.67;4.43;;;;;;;;;;5015618;28;20200;-72
2023/06/17 06:56:09;;;;;;;4.83;4.13;;;;;;;;;;5004334;28;20513;-72
2023/06/17 06:59:16;;;;;;;5.10;4.27;;;;;;;;;;5003971;28;20213;-71
2023/06/17 07:02:20;;;;;;;8.23;4.30;;;;;;;;;;5015254;28;20221;-71
2023/06/17 07:05:24;;;;;;;7.43;4.27;;;;;;;;;;5015283;28;20185;-72
2023/06/17 07:08:34;;;;;;;7.80;4.27;;;;;;;;;;5014963;28;20186;-72
2023/06/17 07:11:39;;;;;;;6.10;4.40;;;;;;;;;;5015057;28;20221;-72
2023/06/17 07:14:43;;;;;;;7.47;4.23;;;;;;;;;;5003722;28;20201;-72
2023/06/17 07:17:49;;;;;;;9.57;4.23;;;;;;;;;;5015022;28;20682;-72
2023/06/17 07:20:53;;;;;;;5.73;4.07;;;;;;;;;;5014976;28;20581;-71
2023/06/17 07:23:58;;;;;;;4.53;3.93;;;;;;;;;;5003806;28;20664;-71
2023/06/17 07:27:02;;;;;;;5.20;3.93;;;;;;;;;;5014707;28;20201;-72
2023/06/17 07:30:08;;;;;;;5.73;4.40;;;;;;;;;;5003791;28;20169;-73
2023/06/17 07:33:12;;;;;;;8.13;3.83;;;;;;;;;;5014881;28;20186;-72
2023/06/17 07:36:16;;;;;;;5.20;4.20;;;;;;;;;;4992287;28;20211;-72
2023/06/17 07:39:20;;;;;;;9.23;3.90;;;;;;;;;;5015286;28;20203;-72
2023/06/17 07:42:24;;;;;;;4.70;4.07;;;;;;;;;;5015198;28;20568;-72
2023/06/17 07:45:28;;;;;;;4.20;3.80;;;;;;;;;;5015561;28;20182;-72
2023/06/17 07:48:33;;;;;;;6.07;3.70;;;;;;;;;;5015432;28;20175;-72
2023/06/17 07:51:40;;;;;;;5.13;4.00;;;;;;;;;;5014439;28;20223;-73
2023/06/17 07:54:44;;;;;;;4.70;3.70;;;;;;;;;;5015706;28;20187;-73
2023/06/17 07:57:49;;;;;;;4.53;3.95;;;;;;;;;;5015076;28;20212;-73
2023/06/17 08:00:56;;;;;;;4.95;3.55;;;;;;;;;;5014186;28;20702;-73
2023/06/17 08:04:00;;;;;;;4.35;3.88;;;;;;;;;;5014914;28;20642;-73
2023/06/17 08:07:04;;;;;;;7.75;3.90;;;;;;;;;;5003030;28;20191;-73
2023/06/17 08:10:08;;;;;;;5.30;3.72;;;;;;;;;;5015105;28;20183;-72
2023/06/17 08:13:13;;;;;;;6.05;3.25;;;;;;;;;;5014762;28;20198;-73
2023/06/17 08:16:17;;;;;;;5.38;3.72;;;;;;;;;;5014936;28;20185;-73
2023/06/17 08:19:21;;;;;;;6.35;4.13;;;;;;;;;;5013619;28;20212;-73
2023/06/17 08:22:25;;;;;;;8.40;3.53;;;;;;;;;;5014511;28;20566;-73
2023/06/17 08:25:31;;;;;;;4.15;3.75;;;;;;;;;;5013927;28;20183;-73
2023/06/17 08:28:36;;;;;;;6.18;3.90;;;;;;;;;;5014456;28;20172;-73
2023/06/17 08:31:45;;;;;;;4.60;3.25;;;;;;;;;;5014421;28;20706;-73
2023/06/17 08:34:50;;;;;;;5.50;3.55;;;;;;;;;;5014251;28;20178;-73
2023/06/17 08:37:54;;;;;;;3.95;3.45;;;;;;;;;;5014041;28;20208;-73
2023/06/17 08:40:58;;;;;;;5.28;3.30;;;;;;;;;;5014151;28;20226;-73
2023/06/17 08:44:04;;;;;;;7.72;3.72;;;;;;;;;;5014114;28;20185;-73
2023/06/17 08:47:14;;;;;;;5.07;3.53;;;;;;;;;;5014578;28;20525;-73
2023/06/17 08:50:18;;;;;;;5.28;3.70;;;;;;;;;;5001817;28;20182;-73
2023/06/17 08:53:24;;;;;;;4.82;3.80;;;;;;;;;;5013112;28;20208;-72
2023/06/17 08:56:29;;;;;;;5.30;3.50;;;;;;;;;;5013921;28;20185;-73
2023/06/17 08:59:33;;;;;;;8.02;3.58;;;;;;;;;;5001742;28;20205;-72
2023/06/17 09:02:37;;;;;;;6.10;3.60;;;;;;;;;;5013079;28;20577;-72
2023/06/17 09:05:42;;;;;;;5.30;3.55;;;;;;;;;;4993277;28;20228;-71
2023/06/17 09:08:46;;;;;;;5.25;4.05;;;;;;;;;;4994067;28;20179;-72
2023/06/17 09:11:51;;;;;;;9.32;3.65;;;;;;;;;;4994007;28;20226;-72
2023/06/17 09:14:56;;;;;;;34.95;5.43;;;;;;;;;;4994563;28;20183;-72
2023/06/17 09:18:00;;;;;;;7.25;3.47;;;;;;;;;;4993854;28;20178;-71
2023/06/17 09:21:05;;;;;;;7.65;4.85;;;;;;;;;;4982296;28;20222;-72
2023/06/17 09:24:09;;;;;;;4.50;3.50;;;;;;;;;;4994156;28;20644;-72
2023/06/17 09:27:22;;;;;;;4.97;3.55;;;;;;;;;;4992864;28;20197;-72
2023/06/17 09:30:26;;;;;;;7.47;3.50;;;;;;;;;;4993820;28;20174;-72
2023/06/17 09:33:30;;;;;;;6.43;3.30;;;;;;;;;;4992981;28;20182;-72
2023/06/17 09:36:38;;;;;;;4.13;3.53;;;;;;;;;;4993766;28;20210;-72
2023/06/17 09:39:44;;;;;;;6.47;3.70;;;;;;;;;;4993964;28;20210;-72
2023/06/17 09:42:50;;;;;;;5.88;4.25;;;;;;;;;;4993960;28;20178;-72
2023/06/17 09:46:01;;;;;;;13.80;8.38;;;;;;;;;;4993588;28;20197;-72
2023/06/17 09:49:12;;;;;;;20.63;11.02;;;;;;;;;;4992817;28;20185;-72
2023/06/17 09:52:16;;;;;;;6.85;5.93;;;;;;;;;;4993521;28;20226;-72
2023/06/17 09:55:21;;;;;;;6.65;5.18;;;;;;;;;;4993846;28;20194;-72
2023/06/17 09:58:32;;;;;;;5.30;4.68;;;;;;;;;;4993607;28;20741;-72
2023/06/17 10:01:40;;;;;;;8.50;3.30;;;;;;;;;;4993707;28;20218;-72
2023/06/17 10:04:43;;;;;;;4.93;3.28;;;;;;;;;;4993427;28;20527;-72
2023/06/17 10:07:49;;;;;;;5.30;3.67;;;;;;;;;;4993450;28;20187;-71
2023/06/17 10:10:56;;;;;;;7.65;3.40;;;;;;;;;;4992799;28;20554;-71
2023/06/17 10:14:06;;;;;;;3.88;3.47;;;;;;;;;;4993568;28;20182;-71
2023/06/17 10:17:11;;;;;;;5.93;3.92;;;;;;;;;;4993649;28;20182;-71
2023/06/17 10:20:17;;;;;;;5.70;3.50;;;;;;;;;;4993317;28;20207;-72
2023/06/17 10:23:22;;;;;;;10.07;4.03;;;;;;;;;;4993546;28;20195;-72
2023/06/17 10:26:28;;;;;;;8.23;3.90;;;;;;;;;;5002732;28;20198;-72
2023/06/17 10:29:32;;;;;;;10.90;3.83;;;;;;;;;;5011384;28;20185;-72
2023/06/17 10:32:37;;;;;;;4.90;3.95;;;;;;;;;;5010819;28;20221;-71
2023/06/17 10:35:44;;;;;;;4.88;4.05;;;;;;;;;;5011457;28;20529;-72
2023/06/17 10:39:04;;;;;;;9.80;4.32;;;;;;;;;;5008921;22;20236;-71
2023/06/17 10:42:13;;;;;;;6.07;4.13;;;;;;;;;;4982886;28;20566;-72
2023/06/17 10:45:17;;;;;;;4.72;4.22;;;;;;;;;;4987420;28;20191;-71
2023/06/17 10:48:29;;;;;;;4.22;3.80;;;;;;;;;;4974523;28;20194;-71
2023/06/17 10:51:33;;;;;;;8.43;4.07;;;;;;;;;;4986858;28;20222;-72
2023/06/17 10:54:44;;;;;;;4.10;3.70;;;;;;;;;;4975302;28;20186;-72
2023/06/17 10:57:50;;;;;;;4.75;3.95;;;;;;;;;;4986185;28;20205;-71
2023/06/17 11:01:06;;;;;;;4.35;3.55;;;;;;;;;;4986034;28;20218;-72
2023/06/17 11:04:12;;;;;;;6.93;3.65;;;;;;;;;;4986305;28;20192;-71
2023/06/17 11:07:16;;;;;;;4.90;3.72;;;;;;;;;;4986931;28;20197;-71
2023/06/17 11:10:27;;;;;;;4.90;3.83;;;;;;;;;;4986027;28;20197;-71
2023/06/17 11:13:31;;;;;;;5.63;3.72;;;;;;;;;;4985379;28;20641;-71
2023/06/17 11:16:35;;;;;;;4.40;3.65;;;;;;;;;;4985868;28;20194;-71
2023/06/17 11:19:39;;;;;;;5.03;3.85;;;;;;;;;;4986657;28;20211;-71
2023/06/17 11:22:44;;;;;;;4.32;3.90;;;;;;;;;;4985260;28;20195;-72
2023/06/17 11:25:51;;;;;;;4.53;3.67;;;;;;;;;;4985717;28;20191;-72
2023/06/17 11:28:56;;;;;;;3.90;3.50;;;;;;;;;;4986725;28;20548;-71
2023/06/17 11:32:02;;;;;;;4.80;3.70;;;;;;;;;;4982177;28;20226;-72
2023/06/17 11:35:08;;;;;;;12.02;4.80;;;;;;;;;;4976626;28;20187;-72
2023/06/17 11:38:12;;;;;;;5.25;3.90;;;;;;;;;;4976266;28;20206;-72
2023/06/17 11:41:16;;;;;;;4.82;3.92;;;;;;;;;;4975676;28;20202;-72
2023/06/17 11:44:20;;;;;;;9.32;3.67;;;;;;;;;;4975792;28;20548;-72
2023/06/17 11:47:32;;;;;;;5.82;3.78;;;;;;;;;;4975624;28;20188;-72
2023/06/17 11:50:37;;;;;;;4.65;3.88;;;;;;;;;;4975381;28;20183;-72
2023/06/17 11:53:44;;;;;;;4.78;3.70;;;;;;;;;;4975989;28;20188;-72
2023/06/17 11:56:49;;;;;;;4.72;4.00;;;;;;;;;;4976231;28;20186;-72
2023/06/17 12:00:04;;;;;;;4.70;3.60;;;;;;;;;;4976127;28;20203;-72
2023/06/17 12:03:17;;;;;;;6.00;3.75;;;;;;;;;;4976119;28;20535;-72
2023/06/17 12:06:22;;;;;;;6.45;3.90;;;;;;;;;;4975787;28;20188;-72
2023/06/17 12:09:26;;;;;;;4.90;3.88;;;;;;;;;;4989187;28;20193;-72
2023/06/17 12:12:32;;;;;;;6.85;3.75;;;;;;;;;;4995101;28;20222;-73
2023/06/17 12:15:36;;;;;;;4.88;3.60;;;;;;;;;;4995307;28;20182;-72
2023/06/17 12:18:48;;;;;;;4.78;4.00;;;;;;;;;;4994977;28;20198;-72
2023/06/17 12:21:52;;;;;;;6.82;4.03;;;;;;;;;;4994914;28;20698;-72
2023/06/17 12:24:56;;;;;;;6.07;4.22;;;;;;;;;;4994259;28;20202;-72
2023/06/17 12:28:01;;;;;;;7.65;3.60;;;;;;;;;;4994192;28;20527;-72
2023/06/17 12:31:06;;;;;;;6.55;3.90;;;;;;;;;;4994763;28;20214;-72
2023/06/17 12:34:10;;;;;;;6.07;3.60;;;;;;;;;;4994826;28;20189;-72
2023/06/17 12:37:16;;;;;;;8.25;3.72;;;;;;;;;;4993852;28;20194;-72
2023/06/17 12:40:20;;;;;;;5.53;3.90;;;;;;;;;;4994731;28;20207;-72
2023/06/17 12:43:24;;;;;;;6.55;4.18;;;;;;;;;;4994818;28;20182;-71
2023/06/17 12:46:28;;;;;;;5.35;3.70;;;;;;;;;;4994778;28;20182;-71
2023/06/17 12:49:33;;;;;;;12.13;4.07;;;;;;;;;;4994557;28;20178;-71
2023/06/17 12:52:37;;;;;;;7.25;3.78;;;;;;;;;;4994306;28;20225;-72
2023/06/17 12:55:41;;;;;;;5.13;3.58;;;;;;;;;;4994259;28;20194;-71
2023/06/17 12:58:45;;;;;;;4.40;3.80;;;;;;;;;;4994287;28;20185;-71
2023/06/17 13:01:49;;;;;;;6.68;3.42;;;;;;;;;;4994243;28;20214;-71
2023/06/17 13:04:53;;;;;;;7.47;3.97;;;;;;;;;;4993382;28;20637;-71
2023/06/17 13:07:58;;;;;;;5.72;3.92;;;;;;;;;;4994149;28;20191;-71
2023/06/17 13:11:02;;;;;;;5.68;4.10;;;;;;;;;;4994003;28;20221;-71
2023/06/17 13:14:06;;;;;;;6.25;4.05;;;;;;;;;;4993273;28;20536;-71
2023/06/17 13:17:11;;;;;;;4.78;3.92;;;;;;;;;;4993482;28;20202;-71
2023/06/17 13:20:15;;;;;;;5.00;3.67;;;;;;;;;;4994450;28;20557;-71
2023/06/17 13:23:19;;;;;;;5.82;3.63;;;;;;;;;;4994238;28;20185;-71
2023/06/17 13:26:28;;;;;;;5.93;4.10;;;;;;;;;;4993887;28;20183;-71
2023/06/17 13:29:32;;;;;;;5.80;3.95;;;;;;;;;;4994144;28;20183;-71
2023/06/17 13:32:36;;;;;;;4.25;3.70;;;;;;;;;;4994064;28;20214;-72
2023/06/17 13:35:41;;;;;;;4.07;3.67;;;;;;;;;;4994075;28;20182;-72
2023/06/17 13:38:45;;;;;;;4.60;4.20;;;;;;;;;;4993510;28;20214;-72
2023/06/17 13:41:49;;;;;;;4.57;3.72;;;;;;;;;;4993649;28;20206;-72
2023/06/17 13:44:56;;;;;;;4.32;3.78;;;;;;;;;;4993714;28;20646;-72
2023/06/17 13:48:00;;;;;;;4.00;3.60;;;;;;;;;;4981905;28;20186;-72
2023/06/17 13:51:04;;;;;;;6.20;3.65;;;;;;;;;;4993893;28;20206;-71
2023/06/17 13:54:09;;;;;;;4.13;3.72;;;;;;;;;;4981809;28;20186;-72
2023/06/17 13:57:13;;;;;;;7.00;3.88;;;;;;;;;;4993549;28;20186;-72
2023/06/17 14:00:17;;;;;;;9.50;3.90;;;;;;;;;;4970670;28;20206;-72
2023/06/17 14:03:22;;;;;;;4.90;4.00;;;;;;;;;;4993480;28;20198;-72
2023/06/17 14:06:26;;;;;;;8.73;4.10;;;;;;;;;;4993765;28;20198;-72
2023/06/17 14:09:30;;;;;;;6.72;3.70;;;;;;;;;;4993199;28;20202;-72
2023/06/17 14:12:34;;;;;;;8.07;3.85;;;;;;;;;;4993326;28;20571;-72
2023/06/17 14:15:38;;;;;;;6.30;3.83;;;;;;;;;;4993809;28;20190;-72
2023/06/17 14:18:42;;;;;;;4.68;3.85;;;;;;;;;;4995695;28;20178;-72
2023/06/17 14:22:00;;;;;;;6.65;4.00;;;;;;;;;;4997335;28;20688;-72
2023/06/17 14:25:05;;;;;;;5.63;3.70;;;;;;;;;;4997423;28;20195;-72
2023/06/17 14:28:09;;;;;;;6.55;4.00;;;;;;;;;;4997039;28;20543;-72
2023/06/17 14:31:13;;;;;;;4.28;3.50;;;;;;;;;;4997082;28;20688;-72
2023/06/17 14:34:17;;;;;;;6.00;4.18;;;;;;;;;;4996935;28;20178;-72
2023/06/17 14:37:21;;;;;;;7.10;4.60;;;;;;;;;;4996307;28;20179;-72
2023/06/17 14:40:26;;;;;;;5.45;3.97;;;;;;;;;;4985010;28;20654;-72
2023/06/17 14:43:30;;;;;;;5.75;3.67;;;;;;;;;;4996769;28;20187;-71
2023/06/17 14:46:34;;;;;;;5.93;4.05;;;;;;;;;;4997034;28;20179;-71
2023/06/17 14:49:38;;;;;;;5.82;3.72;;;;;;;;;;4996611;28;20201;-71
2023/06/17 14:52:47;;;;;;;4.30;3.85;;;;;;;;;;4996579;28;20222;-71
2023/06/17 14:56:32;;;;;;;4.53;3.70;;;;;;;;;;4996839;28;20187;-71
2023/06/17 14:59:36;;;;;;;6.15;3.67;;;;;;;;;;4995961;28;20630;-71
2023/06/17 15:02:48;;;;;;;5.10;3.70;;;;;;;;;;4996625;28;20213;-72
2023/06/17 15:05:52;;;;;;;5.40;4.03;;;;;;;;;;4996710;28;20179;-72
2023/06/17 15:09:07;;;;;;;5.68;4.07;;;;;;;;;;4996618;28;20633;-71
2023/06/17 15:12:15;;;;;;;6.95;3.88;;;;;;;;;;4996116;28;20214;-72
2023/06/17 15:15:19;;;;;;;4.82;3.67;;;;;;;;;;4996259;28;20182;-72
2023/06/17 15:18:24;;;;;;;4.65;4.00;;;;;;;;;;4995281;28;20193;-72
2023/06/17 15:21:28;;;;;;;11.60;4.15;;;;;;;;;;4995942;28;20222;-72
2023/06/17 15:24:32;;;;;;;4.45;3.97;;;;;;;;;;4996029;28;20186;-72
2023/06/17 15:27:37;;;;;;;4.53;3.60;;;;;;;;;;4995089;28;20194;-72
2023/06/17 15:30:41;;;;;;;6.63;3.70;;;;;;;;;;4994966;28;20214;-72
2023/06/17 15:33:45;;;;;;;4.72;3.70;;;;;;;;;;4995061;28;20633;-72
2023/06/17 15:36:49;;;;;;;4.22;3.70;;;;;;;;;;4996085;28;20182;-72
2023/06/17 15:39:53;;;;;;;4.63;4.13;;;;;;;;;;5017509;28;20174;-71
2023/06/17 15:42:57;;;;;;;4.97;4.00;;;;;;;;;;4995804;28;20187;-72
2023/06/17 15:46:02;;;;;;;5.00;3.67;;;;;;;;;;4995946;28;20187;-72
2023/06/17 15:49:06;;;;;;;5.63;3.70;;;;;;;;;;4995519;28;20183;-72
2023/06/17 15:52:10;;;;;;;4.47;4.05;;;;;;;;;;4995763;28;20680;-72
2023/06/17 15:55:14;;;;;;;5.28;3.67;;;;;;;;;;4995435;28;20188;-71
2023/06/17 15:58:19;;;;;;;4.75;4.10;;;;;;;;;;4995570;28;20181;-71
2023/06/17 16:01:23;;;;;;;6.38;4.00;;;;;;;;;;4995431;28;20225;-71
2023/06/17 16:04:35;;;;;;;7.10;4.15;;;;;;;;;;4995358;28;20188;-71
2023/06/17 16:07:39;;;;;;;5.57;3.90;;;;;;;;;;4995535;28;20183;-71
2023/06/17 16:10:44;;;;;;;5.03;3.92;;;;;;;;;;4995121;28;20207;-71
2023/06/17 16:13:48;;;;;;;5.47;4.05;;;;;;;;;;4994454;28;20187;-71
2023/06/17 16:16:51;;;;;;;5.95;4.55;;;;;;;;;;4994556;28;20190;-71
2023/06/17 16:19:57;;;;;;;4.20;3.80;;;;;;;;;;4994991;28;20533;-71
2023/06/17 16:23:02;;;;;;;4.95;4.05;;;;;;;;;;4995215;28;20184;-71
2023/06/17 16:26:06;;;;;;;5.05;3.80;;;;;;;;;;4994314;28;20193;-71
2023/06/17 16:29:11;;;;;;;6.63;3.85;;;;;;;;;;4995118;28;20189;-71
2023/06/17 16:32:15;;;;;;;6.45;4.10;;;;;;;;;;4994776;28;20565;-71
2023/06/17 16:35:19;;;;;;;9.07;4.20;;;;;;;;;;4994235;28;20178;-71
2023/06/17 16:38:23;;;;;;;7.28;3.95;;;;;;;;;;4994624;28;20679;-71
2023/06/17 16:41:27;;;;;;;5.18;3.80;;;;;;;;;;4981978;28;20228;-71
2023/06/17 16:44:31;;;;;;;5.18;4.15;;;;;;;;;;4994550;28;20188;-71
2023/06/17 16:47:35;;;;;;;5.13;4.25;;;;;;;;;;4994465;28;20201;-71
2023/06/17 16:50:39;;;;;;;4.38;3.97;;;;;;;;;;4994329;28;20215;-71
2023/06/17 16:53:43;;;;;;;5.55;4.07;;;;;;;;;;4993616;28;20200;-71
2023/06/17 16:56:47;;;;;;;6.53;4.15;;;;;;;;;;4994245;28;20198;-71
2023/06/17 16:59:51;;;;;;;6.82;4.20;;;;;;;;;;4994305;28;20185;-71
2023/06/17 17:02:55;;;;;;;4.50;4.10;;;;;;;;;;5004657;28;20176;-71
2023/06/17 17:05:59;;;;;;;7.65;4.30;;;;;;;;;;4994209;28;20184;-71
2023/06/17 17:09:03;;;;;;;6.40;4.50;;;;;;;;;;4994123;28;20174;-71
2023/06/17 17:12:07;;;;;;;5.85;5.03;;;;;;;;;;4994029;28;20209;-71
2023/06/17 17:15:11;;;;;;;6.78;4.38;;;;;;;;;;4994346;28;20201;-71
2023/06/17 17:18:15;;;;;;;5.45;4.15;;;;;;;;;;4993971;28;20183;-71
2023/06/17 17:21:19;;;;;;;13.95;7.22;;;;;;;;;;4993314;28;20219;-71
2023/06/17 17:24:23;;;;;;;6.60;4.97;;;;;;;;;;4993893;28;20202;-71
2023/06/17 17:27:27;;;;;;;5.03;4.10;;;;;;;;;;5015674;28;20197;-71
2023/06/17 17:30:31;;;;;;;4.70;4.13;;;;;;;;;;4993757;28;20184;-71
2023/06/17 17:33:35;;;;;;;5.63;4.53;;;;;;;;;;4993902;28;20531;-71
2023/06/17 17:36:40;;;;;;;7.80;6.45;;;;;;;;;;4993763;28;20205;-71
2023/06/17 17:39:45;;;;;;;8.05;5.85;;;;;;;;;;4993678;28;20193;-71
2023/06/17 17:42:49;;;;;;;6.38;5.13;;;;;;;;;;4993633;28;20200;-71
2023/06/17 17:45:53;;;;;;;5.13;4.65;;;;;;;;;;4993992;28;20181;-71
2023/06/17 17:48:57;;;;;;;6.38;4.43;;;;;;;;;;4993660;28;20189;-71
2023/06/17 17:52:02;;;;;;;6.00;4.07;;;;;;;;;;4994922;28;20222;-71
2023/06/17 17:55:06;;;;;;;5.13;4.40;;;;;;;;;;4997470;28;20178;-71
2023/06/17 17:58:09;;;;;;;7.00;4.45;;;;;;;;;;4997817;28;20183;-71
2023/06/17 18:01:14;;;;;;;5.23;4.30;;;;;;;;;;4997780;28;20232;-71
2023/06/17 18:04:18;;;;;;;5.67;4.13;;;;;;;;;;4985633;28;20182;-71
2023/06/17 18:07:22;;;;;;;6.43;4.03;;;;;;;;;;4997775;28;20182;-71
2023/06/17 18:10:26;;;;;;;5.73;3.90;;;;;;;;;;4997603;28;20186;-71
2023/06/17 18:13:30;;;;;;;8.07;4.67;;;;;;;;;;4996537;28;20198;-71
2023/06/17 18:16:34;;;;;;;9.70;5.03;;;;;;;;;;4997246;28;20199;-72
2023/06/17 18:19:38;;;;;;;5.87;4.60;;;;;;;;;;4997256;28;20182;-71
2023/06/17 18:22:42;;;;;;;6.33;4.00;;;;;;;;;;4997055;28;20218;-71
2023/06/17 18:25:47;;;;;;;8.93;4.50;;;;;;;;;;4997429;28;20184;-71
2023/06/17 18:28:51;;;;;;;8.87;4.30;;;;;;;;;;4997215;28;20637;-71
2023/06/17 18:31:55;;;;;;;5.53;4.40;;;;;;;;;;4996697;28;20209;-71